Pacific Dawn — 2AGH7 — position and weather

sailwx.info

Track history (hours):
 
Tides and Currents Weather Stations Pressure Air Temp Water Temp Dewpoint Dewpoint Depression Visibility Wind Speed Wind Dir Waves Ship Positions

Pacific Dawn

Last reported at 2019-Aug-13 09:54 UTC. Time now 2019-Aug-20 10:37 UTC.
Position N 01°28' E 103°50'.

Length 245 m; draft 8.4 m.

Type: Passenger vessel. MMSI: 235059368.

Date/timePositionNaut miles runAvg speedWind from/ knotsBaromVisibWave heightAir tempDewpointWater temp
2019-Aug-13 09:54N 01°28' E 103°50'0 0.2
2019-Aug-13 09:10N 01°28' E 103°50'0 0.0
2019-Aug-13 08:59N 01°28' E 103°50'0 0.8
2019-Aug-13 08:29N 01°28' E 103°50'2 4.8
2019-Aug-13 08:00N 01°28' E 103°52'4 8.1
2019-Aug-13 07:30N 01°25' E 103°55'510.2
2019-Aug-13 07:00N 01°24' E 104°00'612.0
2019-Aug-13 06:30N 01°20' E 104°05'4 8.8
2019-Aug-13 06:00N 01°17' E 104°02'713.7
2019-Aug-13 05:31N 01°14' E 103°55'713.1
2019-Aug-13 05:00N 01°12' E 103°49'4 7.3
2019-Aug-13 04:30N 01°16' E 103°48'1 1.6
2019-Aug-13 04:01N 01°16' E 103°49'0 0.1
2019-Aug-13 03:22N 01°16' E 103°49'0 0.2
2019-Aug-13 03:01N 01°16' E 103°49'0 0.0
2019-Aug-13 02:30N 01°16' E 103°49'0 0.0
2019-Aug-13 01:31N 01°16' E 103°49'0 0.0
2019-Aug-13 00:58N 01°16' E 103°49'0 0.0
2019-Aug-13 00:18N 01°16' E 103°49'0 0.0
2019-Aug-13 00:01N 01°16' E 103°49'0 0.0
2019-Aug-12 23:31N 01°16' E 103°49'0 0.0
2019-Aug-12 23:01N 01°16' E 103°49'0 0.1
2019-Aug-12 22:27N 01°16' E 103°49'2 3.8
2019-Aug-12 22:00N 01°15' E 103°48'4 8.1
2019-Aug-12 21:30N 01°12' E 103°50'611.2
2019-Aug-12 21:00N 01°14' E 103°55'815.2
2019-Aug-12 20:30N 01°16' E 104°02'25714.6
2019-Aug-12 03:00S 01°06' E 107°36'19716.4 130 / 161008.710.8 31.025.427.4
2019-Aug-11 15:00S 03°42' E 109°36'30118.8 100 / 201008.210.8 25.022.027.4
2019-Aug-10 23:00S 06°18' E 113°54'16120.1 100 / 191011.810.8 26.021.527.4
2019-Aug-10 15:00S 08°18' E 115°42'136 5.7 170 / 131008.910.8 25.022.027.0
2019-Aug-09 15:00S 09°12' E 117°48'172 6.9 150 / 191010.010.8 22.018.925.4
2019-Aug-08 14:00S 09°06' E 120°42'95 7.9 130 / 151009.910.8 25.022.026.0
2019-Aug-08 02:00S 09°00' E 122°18'12610.5 150 / 101010.510.8 25.022.025.4
2019-Aug-07 14:00S 08°42' E 124°24'169 7.0 010 / 101008.410.8 25.022.025.0
2019-Aug-06 14:00S 08°12' E 127°12'15112.6 150 / 191007.710.8 25.022.026.4
2019-Aug-06 02:00S 10°18' E 128°36'14212.1 090 / 171009.710.8 26.021.526.0
2019-Aug-05 14:11S 12°03' E 130°14'312.7
2019-Aug-05 13:59S 12°05' E 130°16'612.8
2019-Aug-05 13:30S 12°08' E 130°21'612.7
2019-Aug-05 13:00S 12°11' E 130°27'712.8
2019-Aug-05 12:29S 12°14' E 130°33'713.0
2019-Aug-05 11:59S 12°17' E 130°39'611.5
2019-Aug-05 11:29S 12°21' E 130°43'714.4
2019-Aug-05 11:00S 12°27' E 130°48'3 6.9
2019-Aug-05 10:30S 12°28' E 130°51'0 0.0
2019-Aug-05 09:58S 12°28' E 130°51'0 0.0
2019-Aug-05 09:28S 12°28' E 130°51'0 0.0
2019-Aug-05 08:58S 12°28' E 130°51'0 0.0
2019-Aug-05 08:28S 12°28' E 130°51'0 0.0
2019-Aug-05 07:58S 12°28' E 130°51'0 0.0
2019-Aug-05 07:16S 12°28' E 130°51'0 0.0
2019-Aug-05 06:55S 12°28' E 130°51'0 0.0
2019-Aug-05 06:25S 12°28' E 130°51'0 0.0
2019-Aug-05 05:55S 12°28' E 130°51'0 0.0
2019-Aug-05 05:31S 12°28' E 130°51'0 0.0
2019-Aug-05 04:46S 12°28' E 130°51'0 0.0
2019-Aug-05 04:22S 12°28' E 130°51'0 0.0
2019-Aug-05 03:55S 12°28' E 130°51'0 0.0
2019-Aug-05 03:28S 12°28' E 130°51'0 0.0
2019-Aug-05 02:55S 12°28' E 130°51'0 0.0
2019-Aug-05 02:28S 12°28' E 130°51'0 0.0
2019-Aug-05 01:04S 12°28' E 130°51'0 0.0
2019-Aug-05 00:58S 12°28' E 130°51'0 0.0
2019-Aug-05 00:22S 12°28' E 130°51'0 0.0
2019-Aug-04 23:43S 12°28' E 130°51'0 0.0
2019-Aug-04 22:31S 12°28' E 130°51'0 0.1
2019-Aug-04 22:10S 12°28' E 130°51'0 0.9
2019-Aug-04 22:00S 12°28' E 130°51'810.4
2019-Aug-04 21:14S 12°23' E 130°45'417.2
2019-Aug-04 20:59S 12°20' E 130°42'612.0
2019-Aug-04 20:28S 12°14' E 130°45'714.0
2019-Aug-04 19:57S 12°09' E 130°50'716.5
2019-Aug-04 19:30S 12°05' E 130°56'918.3
2019-Aug-04 18:59S 12°05' E 131°06'2117.2
2019-Aug-04 17:44S 11°53' E 131°24'618.4
2019-Aug-04 17:26S 11°52' E 131°29'  
Track history (hours):
 
Tides and Currents Weather Stations Pressure Air Temp Water Temp Dewpoint Dewpoint Depression Visibility Wind Speed Wind Dir Waves Ship Positions

Pacific Dawn

Last reported at 2019-Aug-13 09:54 UTC. Time now 2019-Aug-20 10:37 UTC.
Position N 01°28' E 103°50'.

Length 245 m; draft 8.4 m.

Type: Passenger vessel. MMSI: 235059368.

Date/timePositionNaut miles runAvg speedWind from/ knotsBaromVisibWave heightAir tempDewpointWater temp
2019-Aug-13 09:54N 01°28' E 103°50'0 0.2
2019-Aug-13 09:10N 01°28' E 103°50'0 0.0
2019-Aug-13 08:59N 01°28' E 103°50'0 0.8
2019-Aug-13 08:29N 01°28' E 103°50'2 4.8
2019-Aug-13 08:00N 01°28' E 103°52'4 8.1
2019-Aug-13 07:30N 01°25' E 103°55'510.2
2019-Aug-13 07:00N 01°24' E 104°00'612.0
2019-Aug-13 06:30N 01°20' E 104°05'4 8.8
2019-Aug-13 06:00N 01°17' E 104°02'713.7
2019-Aug-13 05:31N 01°14' E 103°55'713.1
2019-Aug-13 05:00N 01°12' E 103°49'4 7.3
2019-Aug-13 04:30N 01°16' E 103°48'1 1.6
2019-Aug-13 04:01N 01°16' E 103°49'0 0.1
2019-Aug-13 03:22N 01°16' E 103°49'0 0.2
2019-Aug-13 03:01N 01°16' E 103°49'0 0.0
2019-Aug-13 02:30N 01°16' E 103°49'0 0.0
2019-Aug-13 01:31N 01°16' E 103°49'0 0.0
2019-Aug-13 00:58N 01°16' E 103°49'0 0.0
2019-Aug-13 00:18N 01°16' E 103°49'0 0.0
2019-Aug-13 00:01N 01°16' E 103°49'0 0.0
2019-Aug-12 23:31N 01°16' E 103°49'0 0.0
2019-Aug-12 23:01N 01°16' E 103°49'0 0.1
2019-Aug-12 22:27N 01°16' E 103°49'2 3.8
2019-Aug-12 22:00N 01°15' E 103°48'4 8.1
2019-Aug-12 21:30N 01°12' E 103°50'611.2
2019-Aug-12 21:00N 01°14' E 103°55'815.2
2019-Aug-12 20:30N 01°16' E 104°02'25714.6
2019-Aug-12 03:00S 01°06' E 107°36'19716.4 130 / 161008.710.8 31.025.427.4
2019-Aug-11 15:00S 03°42' E 109°36'30118.8 100 / 201008.210.8 25.022.027.4
2019-Aug-10 23:00S 06°18' E 113°54'16120.1 100 / 191011.810.8 26.021.527.4
2019-Aug-10 15:00S 08°18' E 115°42'136 5.7 170 / 131008.910.8 25.022.027.0
2019-Aug-09 15:00S 09°12' E 117°48'172 6.9 150 / 191010.010.8 22.018.925.4
2019-Aug-08 14:00S 09°06' E 120°42'95 7.9 130 / 151009.910.8 25.022.026.0
2019-Aug-08 02:00S 09°00' E 122°18'12610.5 150 / 101010.510.8 25.022.025.4
2019-Aug-07 14:00S 08°42' E 124°24'169 7.0 010 / 101008.410.8 25.022.025.0
2019-Aug-06 14:00S 08°12' E 127°12'15112.6 150 / 191007.710.8 25.022.026.4
2019-Aug-06 02:00S 10°18' E 128°36'14212.1 090 / 171009.710.8 26.021.526.0
2019-Aug-05 14:11S 12°03' E 130°14'312.7
2019-Aug-05 13:59S 12°05' E 130°16'612.8
2019-Aug-05 13:30S 12°08' E 130°21'612.7
2019-Aug-05 13:00S 12°11' E 130°27'712.8
2019-Aug-05 12:29S 12°14' E 130°33'713.0
2019-Aug-05 11:59S 12°17' E 130°39'611.5
2019-Aug-05 11:29S 12°21' E 130°43'714.4
2019-Aug-05 11:00S 12°27' E 130°48'3 6.9
2019-Aug-05 10:30S 12°28' E 130°51'0 0.0
2019-Aug-05 09:58S 12°28' E 130°51'0 0.0
2019-Aug-05 09:28S 12°28' E 130°51'0 0.0
2019-Aug-05 08:58S 12°28' E 130°51'0 0.0
2019-Aug-05 08:28S 12°28' E 130°51'0 0.0
2019-Aug-05 07:58S 12°28' E 130°51'0 0.0
2019-Aug-05 07:16S 12°28' E 130°51'0 0.0
2019-Aug-05 06:55S 12°28' E 130°51'0 0.0
2019-Aug-05 06:25S 12°28' E 130°51'0 0.0
2019-Aug-05 05:55S 12°28' E 130°51'0 0.0
2019-Aug-05 05:31S 12°28' E 130°51'0 0.0
2019-Aug-05 04:46S 12°28' E 130°51'0 0.0
2019-Aug-05 04:22S 12°28' E 130°51'0 0.0
2019-Aug-05 03:55S 12°28' E 130°51'0 0.0
2019-Aug-05 03:28S 12°28' E 130°51'0 0.0
2019-Aug-05 02:55S 12°28' E 130°51'0 0.0
2019-Aug-05 02:28S 12°28' E 130°51'0 0.0
2019-Aug-05 01:04S 12°28' E 130°51'0 0.0
2019-Aug-05 00:58S 12°28' E 130°51'0 0.0
2019-Aug-05 00:22S 12°28' E 130°51'0 0.0
2019-Aug-04 23:43S 12°28' E 130°51'0 0.0
2019-Aug-04 22:31S 12°28' E 130°51'0 0.1
2019-Aug-04 22:10S 12°28' E 130°51'0 0.9
2019-Aug-04 22:00S 12°28' E 130°51'810.4
2019-Aug-04 21:14S 12°23' E 130°45'417.2
2019-Aug-04 20:59S 12°20' E 130°42'612.0
2019-Aug-04 20:28S 12°14' E 130°45'714.0
2019-Aug-04 19:57S 12°09' E 130°50'716.5
2019-Aug-04 19:30S 12°05' E 130°56'918.3
2019-Aug-04 18:59S 12°05' E 131°06'2117.2
2019-Aug-04 17:44S 11°53' E 131°24'618.4
2019-Aug-04 17:26S 11°52' E 131°29'  

Dump ship's entire track history